Waukesha County Airport (UES)


Airport Diagram
Current Weather/Forecast (VFR Conditions)
METAR KUES 300815Z AUTO 00000KT 10SM CLR M03/M07 A3015 RMK AO2
TAF KUES 300520Z 3006/3106 32004KT P6SM OVC045 FM301400 VRB04KT P6SM FEW050

All Charts
General
Chart Name Download
AIRPORT DIAGRAM
TAKEOFF MINIMUMS
ALTERNATE MINIMUMS

Departures
Chart Name Download
ACCRA FIVE (RNAV)
UECKR SIX (RNAV)

Arrivals
Chart Name Download
GOPAC TWO (RNAV)

Approaches
Chart Name Download
ILS OR LOC RWY 10
RNAV (GPS) RWY 10
RNAV (GPS) RWY 28
VOR-A